createdAt,value
2022-12-08T00:01:48.499Z,100392.34
2022-12-08T00:04:15.471Z,100387.16
2022-12-08T00:07:02.742Z,100381.84
2022-12-08T00:09:38.362Z,100378.59
2022-12-08T00:12:11.899Z,100383.78
2022-12-08T00:14:47.332Z,100376.25
2022-12-08T00:17:15.714Z,100382.16
2022-12-08T00:19:43.207Z,100379.47
2022-12-08T00:22:11.898Z,100376.94
2022-12-08T00:24:40.428Z,100377.03
2022-12-08T00:27:09.721Z,100367.53
2022-12-08T00:29:37.003Z,100379.94
2022-12-08T00:32:04.775Z,100376.94
2022-12-08T00:34:32.125Z,100371.25
2022-12-08T00:36:59.829Z,100365.09
2022-12-08T00:39:26.482Z,100361.19
2022-12-08T00:42:11.769Z,100366.03
2022-12-08T00:44:39.250Z,100364.69
2022-12-08T00:47:06.199Z,100363.50
2022-12-08T00:49:33.046Z,100353.91
2022-12-08T00:51:59.883Z,100358.78
2022-12-08T00:54:27.364Z,100360.06
2022-12-08T00:56:54.425Z,100362.72
2022-12-08T00:59:21.304Z,100358.88
2022-12-08T01:01:48.318Z,100355.88
2022-12-08T01:04:17.001Z,100352.19
2022-12-08T01:06:45.177Z,100354.06
2022-12-08T01:09:13.463Z,100352.66
2022-12-08T01:11:40.108Z,100346.88
2022-12-08T01:14:06.782Z,100344.09
2022-12-08T01:16:35.695Z,100352.19
2022-12-08T01:19:02.801Z,100344.19
2022-12-08T01:21:29.442Z,100343.03
2022-12-08T01:23:57.890Z,100334.38
2022-12-08T01:26:24.795Z,100334.03
2022-12-08T01:28:51.472Z,100330.75
2022-12-08T01:31:21.666Z,100332.19
2022-12-08T01:33:49.247Z,100342.00
2022-12-08T01:36:27.562Z,100339.75
2022-12-08T01:38:56.504Z,100335.63
2022-12-08T01:41:25.598Z,100331.34
2022-12-08T01:44:08.932Z,100326.72
2022-12-08T01:46:40.528Z,100330.31
2022-12-08T01:49:10.135Z,100330.09
2022-12-08T01:52:22.038Z,100326.47
2022-12-08T01:54:56.021Z,100324.06
2022-12-08T01:57:39.505Z,100319.56
2022-12-08T02:00:09.945Z,100314.69
2022-12-08T02:02:52.036Z,100316.31
2022-12-08T02:05:22.251Z,100314.34
2022-12-08T02:07:49.738Z,100306.16
2022-12-08T02:10:21.686Z,100304.50
2022-12-08T02:12:51.641Z,100304.50
2022-12-08T02:15:18.786Z,100301.75
2022-12-08T02:18:05.264Z,100305.44
2022-12-08T02:21:03.047Z,100308.31
2022-12-08T02:23:47.353Z,100308.44
2022-12-08T02:26:38.413Z,100303.22
2022-12-08T02:29:43.960Z,100297.34
2022-12-08T02:32:31.599Z,100302.19
2022-12-08T02:35:23.769Z,100298.25
2022-12-08T02:37:55.136Z,100298.25
2022-12-08T02:40:24.804Z,100297.91
2022-12-08T02:43:03.639Z,100294.81
2022-12-08T02:45:39.091Z,100292.47
2022-12-08T02:48:06.121Z,100286.13
2022-12-08T02:50:32.762Z,100284.38
2022-12-08T02:52:59.730Z,100284.97
2022-12-08T02:56:02.450Z,100285.63
2022-12-08T02:58:42.785Z,100281.81
2022-12-08T03:01:12.617Z,100277.44
2022-12-08T03:03:58.204Z,100278.00
2022-12-08T03:06:50.113Z,100277.31
2022-12-08T03:09:41.464Z,100274.53
2022-12-08T03:12:28.599Z,100280.09
2022-12-08T03:14:59.232Z,100270.81
2022-12-08T03:17:29.475Z,100274.19
2022-12-08T03:19:58.401Z,100265.53
2022-12-08T03:22:28.751Z,100266.34
2022-12-08T03:24:57.050Z,100266.69
2022-12-08T03:27:26.851Z,100263.78
2022-12-08T03:29:54.678Z,100265.41
2022-12-08T03:32:34.635Z,100256.50
2022-12-08T03:35:05.981Z,100254.53
2022-12-08T03:37:36.094Z,100259.38
2022-12-08T03:40:04.818Z,100258.78
2022-12-08T03:42:31.767Z,100250.81
2022-12-08T03:44:59.075Z,100251.38
2022-12-08T03:47:25.729Z,100242.97
2022-12-08T03:49:52.499Z,100247.34
2022-12-08T03:52:19.178Z,100236.72
2022-12-08T03:54:45.978Z,100237.06
2022-12-08T03:57:12.554Z,100233.91
2022-12-08T03:59:39.684Z,100221.41
2022-12-08T04:02:08.730Z,100225.13
2022-12-08T04:04:35.499Z,100218.88
2022-12-08T04:07:02.151Z,100218.88
2022-12-08T04:09:28.709Z,100214.13
2022-12-08T04:11:55.386Z,100210.22
2022-12-08T04:14:22.429Z,100210.47
2022-12-08T04:16:49.004Z,100217.97
2022-12-08T04:19:15.700Z,100216.09
2022-12-08T04:21:42.768Z,100217.72
2022-12-08T04:24:09.714Z,100209.75
2022-12-08T04:26:36.338Z,100206.41
2022-12-08T04:29:03.517Z,100206.06
2022-12-08T04:31:30.364Z,100212.28
2022-12-08T04:33:57.023Z,100198.44
2022-12-08T04:36:23.739Z,100196.13
2022-12-08T04:38:50.466Z,100187.34
2022-12-08T04:41:17.250Z,100195.78
2022-12-08T04:43:44.641Z,100194.28
2022-12-08T04:46:11.704Z,100196.03
2022-12-08T04:48:39.926Z,100199.16
2022-12-08T04:51:07.727Z,100191.59
2022-12-08T04:53:34.343Z,100193.75
2022-12-08T04:56:01.235Z,100192.50
2022-12-08T04:58:27.984Z,100197.72
2022-12-08T05:00:54.766Z,100197.97
2022-12-08T05:03:28.129Z,100200.19
2022-12-08T05:05:55.208Z,100194.50
2022-12-08T05:08:22.009Z,100196.72
2022-12-08T05:10:48.678Z,100198.78
2022-12-08T05:13:15.277Z,100193.34
2022-12-08T05:15:41.817Z,100201.44
2022-12-08T05:18:08.379Z,100194.88
2022-12-08T05:20:35.229Z,100195.56
2022-12-08T05:23:01.910Z,100190.59
2022-12-08T05:25:28.526Z,100186.53
2022-12-08T05:28:06.261Z,100186.41
2022-12-08T05:30:41.821Z,100184.56
2022-12-08T05:33:08.536Z,100183.16
2022-12-08T05:35:35.133Z,100175.75
2022-12-08T05:38:01.874Z,100179.69
2022-12-08T05:40:28.692Z,100183.53
2022-12-08T05:42:55.464Z,100179.84
2022-12-08T05:45:22.200Z,100182.00
2022-12-08T05:47:48.961Z,100184.19
2022-12-08T05:50:15.874Z,100185.09
2022-12-08T05:52:42.487Z,100174.16
2022-12-08T05:55:09.668Z,100176.78
2022-12-08T05:57:36.365Z,100174.44
2022-12-08T06:00:03.918Z,100179.06
2022-12-08T06:02:38.580Z,100177.69
2022-12-08T06:05:05.718Z,100171.19
2022-12-08T06:07:32.337Z,100170.88
2022-12-08T06:09:58.983Z,100174.91
2022-12-08T06:12:25.747Z,100179.66
2022-12-08T06:14:52.482Z,100177.50
2022-12-08T06:17:19.172Z,100176.56
2022-12-08T06:19:45.930Z,100183.94
2022-12-08T06:22:12.637Z,100179.56
2022-12-08T06:24:39.234Z,100186.28
2022-12-08T06:27:06.356Z,100179.34
2022-12-08T06:29:33.203Z,100183.50
2022-12-08T06:31:59.778Z,100180.81
2022-12-08T06:34:27.083Z,100178.41
2022-12-08T06:36:53.874Z,100179.56
2022-12-08T06:39:20.620Z,100185.94
2022-12-08T06:42:05.833Z,100180.94
2022-12-08T06:44:32.480Z,100177.03
2022-12-08T06:46:59.109Z,100177.59
2022-12-08T06:49:25.725Z,100184.19
2022-12-08T06:51:52.468Z,100178.44
2022-12-08T06:54:19.354Z,100181.34
2022-12-08T06:56:45.981Z,100180.28
2022-12-08T06:59:12.705Z,100188.03
2022-12-08T07:01:39.512Z,100175.69
2022-12-08T07:04:06.222Z,100180.06
2022-12-08T07:06:33.026Z,100183.31
2022-12-08T07:08:59.651Z,100177.53
2022-12-08T07:11:27.057Z,100191.41
2022-12-08T07:13:56.821Z,100180.75
2022-12-08T07:16:23.395Z,100183.66
2022-12-08T07:18:50.451Z,100188.47
2022-12-08T07:21:17.901Z,100188.03
2022-12-08T07:23:54.419Z,100186.06
2022-12-08T07:26:24.526Z,100186.50
2022-12-08T07:28:51.283Z,100189.75
2022-12-08T07:31:21.318Z,100184.63
2022-12-08T07:33:48.204Z,100187.19
2022-12-08T07:36:15.056Z,100181.78
2022-12-08T07:38:42.765Z,100179.56
2022-12-08T07:41:23.331Z,100186.84
2022-12-08T07:43:53.868Z,100175.19
2022-12-08T07:46:22.477Z,100175.09
2022-12-08T07:48:49.306Z,100182.72
2022-12-08T07:51:16.522Z,100178.78
2022-12-08T07:53:51.603Z,100165.63
2022-12-08T07:56:20.310Z,100173.81
2022-12-08T07:58:47.059Z,100172.97
2022-12-08T08:01:28.996Z,100177.72
2022-12-08T08:03:57.564Z,100174.47
2022-12-08T08:06:24.218Z,100178.78
2022-12-08T08:08:50.894Z,100178.22
2022-12-08T08:11:21.391Z,100175.22
2022-12-08T08:13:49.551Z,100167.56
2022-12-08T08:16:16.814Z,100174.63
2022-12-08T08:18:46.496Z,100175.53
2022-12-08T08:21:43.659Z,100176.59
2022-12-08T08:24:00.094Z,100175.69
2022-12-08T08:26:26.664Z,100175.88
2022-12-08T08:28:53.279Z,100181.69
2022-12-08T08:31:25.949Z,100177.16
2022-12-08T08:33:53.030Z,100184.91
2022-12-08T08:36:19.865Z,100182.16
2022-12-08T08:38:46.395Z,100182.38
2022-12-08T08:41:13.156Z,100185.16
2022-12-08T08:43:40.388Z,100175.66
2022-12-08T08:46:08.925Z,100178.69
2022-12-08T08:48:36.477Z,100186.31
2022-12-08T08:51:11.768Z,100182.81
2022-12-08T08:53:39.189Z,100178.44
2022-12-08T08:56:16.287Z,100177.28
2022-12-08T08:58:43.148Z,100172.13
2022-12-08T09:01:15.837Z,100169.47
2022-12-08T09:03:43.109Z,100163.78
2022-12-08T09:06:09.858Z,100173.13
2022-12-08T09:08:36.679Z,100165.56
2022-12-08T09:11:03.456Z,100166.78
2022-12-08T09:13:30.104Z,100173.94
2022-12-08T09:15:57.150Z,100171.53
2022-12-08T09:18:24.030Z,100168.38
2022-12-08T09:20:50.831Z,100161.25
2022-12-08T09:23:17.797Z,100163.50
2022-12-08T09:25:48.044Z,100163.81
2022-12-08T09:28:15.440Z,100161.00
2022-12-08T09:30:42.183Z,100160.22
2022-12-08T09:33:09.127Z,100165.31
2022-12-08T09:35:36.241Z,100156.31
2022-12-08T09:38:03.456Z,100158.41
2022-12-08T09:40:36.808Z,100161.47
2022-12-08T09:43:25.892Z,100149.91
2022-12-08T09:45:54.167Z,100149.19
2022-12-08T09:48:29.379Z,100148.75
2022-12-08T09:50:58.449Z,100146.66
2022-12-08T09:53:35.369Z,100139.78
2022-12-08T09:56:08.869Z,100142.31
2022-12-08T09:58:59.003Z,100142.63
2022-12-08T10:01:34.514Z,100134.00
2022-12-08T10:04:01.922Z,100129.41
2022-12-08T10:06:33.673Z,100125.06
2022-12-08T10:09:22.699Z,100120.97
2022-12-08T10:12:27.281Z,100110.09
2022-12-08T10:14:54.150Z,100105.91
2022-12-08T10:17:26.885Z,100102.13
2022-12-08T10:20:18.817Z,100112.19
2022-12-08T10:23:14.121Z,100106.91
2022-12-08T10:25:49.133Z,100104.03
2022-12-08T10:28:16.877Z,100104.84
2022-12-08T10:30:44.115Z,100107.88
2022-12-08T10:33:17.374Z,100100.72
2022-12-08T10:35:52.147Z,100099.66
2022-12-08T10:38:29.284Z,100092.25
2022-12-08T10:41:13.377Z,100087.28
2022-12-08T10:44:09.831Z,100082.94
2022-12-08T10:46:38.817Z,100079.81
2022-12-08T10:49:09.377Z,100082.25
2022-12-08T10:51:43.845Z,100076.19
2022-12-08T10:54:34.697Z,100073.56
2022-12-08T10:57:03.544Z,100070.91
2022-12-08T10:59:34.026Z,100066.84
2022-12-08T11:02:01.488Z,100071.38
2022-12-08T11:04:38.316Z,100068.03
2022-12-08T11:07:09.374Z,100062.13
2022-12-08T11:10:03.346Z,100071.22
2022-12-08T11:12:31.767Z,100060.47
2022-12-08T11:15:05.279Z,100053.72
2022-12-08T11:17:41.399Z,100060.22
2022-12-08T11:20:12.426Z,100054.53
2022-12-08T11:22:42.778Z,100052.19
2022-12-08T11:25:30.107Z,100044.53
2022-12-08T11:27:58.998Z,100046.94
2022-12-08T11:30:37.408Z,100044.22
2022-12-08T11:33:15.247Z,100041.50
2022-12-08T11:35:46.088Z,100031.56
2022-12-08T11:38:24.025Z,100037.69
2022-12-08T11:40:56.030Z,100033.44
2022-12-08T11:43:28.979Z,100034.72
2022-12-08T11:46:04.999Z,100039.50
2022-12-08T11:48:58.976Z,100031.47
2022-12-08T11:51:46.920Z,100019.94
2022-12-08T11:54:25.649Z,100018.34
2022-12-08T11:57:02.212Z,100018.66
2022-12-08T11:59:30.692Z,100017.53
2022-12-08T12:02:02.712Z,100006.97
2022-12-08T12:05:11.521Z,100000.97
2022-12-08T12:08:21.089Z,100002.88
2022-12-08T12:11:09.464Z,100008.97
2022-12-08T12:14:07.359Z,100007.38
2022-12-08T12:17:10.234Z,99999.81
2022-12-08T12:19:39.773Z,99995.16
2022-12-08T12:22:20.047Z,99989.25
2022-12-08T12:24:50.357Z,99986.53
2022-12-08T12:27:28.178Z,99984.09
2022-12-08T12:30:06.335Z,99971.22
2022-12-08T12:33:01.898Z,99977.41
2022-12-08T12:35:41.075Z,99978.66
2022-12-08T12:38:52.829Z,99982.91
2022-12-08T12:41:29.046Z,99982.13
2022-12-08T12:44:27.982Z,99987.41
2022-12-08T12:46:56.487Z,99988.19
2022-12-08T12:49:43.687Z,99982.66
2022-12-08T12:52:10.491Z,99983.00
2022-12-08T12:54:54.296Z,99981.69
2022-12-08T12:57:23.864Z,99978.19
2022-12-08T12:59:55.943Z,99980.56
2022-12-08T13:02:36.183Z,99979.38
2022-12-08T13:05:21.274Z,99966.72
2022-12-08T13:07:59.715Z,99977.88
2022-12-08T13:10:39.239Z,99973.56
2022-12-08T13:13:16.568Z,99969.03
2022-12-08T13:15:46.515Z,99972.44
2022-12-08T13:18:36.412Z,99957.63
2022-12-08T13:21:09.289Z,99959.28
2022-12-08T13:23:50.526Z,99966.72
2022-12-08T13:26:27.534Z,99960.19
2022-12-08T13:29:01.461Z,99954.72
2022-12-08T13:31:50.617Z,99959.56
2022-12-08T13:34:24.708Z,99947.13
2022-12-08T13:37:16.150Z,99951.56
2022-12-08T13:39:58.344Z,99948.88
2022-12-08T13:42:49.370Z,99954.28
2022-12-08T13:46:20.203Z,99953.47
2022-12-08T13:49:36.539Z,99949.44
2022-12-08T13:57:32.551Z,99957.69
2022-12-08T14:00:26.808Z,99958.25
2022-12-08T14:02:58.435Z,99956.56
2022-12-08T14:06:10.431Z,99958.16
2022-12-08T14:09:00.019Z,99953.13
2022-12-08T14:12:06.718Z,99958.72
2022-12-08T14:17:28.604Z,99962.66
2022-12-08T14:20:14.306Z,99956.63
2022-12-08T14:22:55.383Z,99947.09
2022-12-08T14:25:28.263Z,99951.00
2022-12-08T14:28:03.953Z,99945.78
2022-12-08T14:30:33.509Z,99960.78
2022-12-08T14:33:02.191Z,99956.06
2022-12-08T14:35:30.391Z,99959.31
2022-12-08T14:38:10.135Z,99956.88
2022-12-08T14:40:39.944Z,99959.78
2022-12-08T14:43:15.233Z,99953.16
2022-12-08T14:45:45.011Z,99958.66
2022-12-08T14:48:47.669Z,99963.63
2022-12-08T14:51:20.744Z,99963.69
2022-12-08T14:54:05.941Z,99965.84
2022-12-08T14:56:39.813Z,99961.59
2022-12-08T14:59:12.587Z,99964.44
2022-12-08T15:01:40.352Z,99964.28
2022-12-08T15:04:12.859Z,99969.66
2022-12-08T15:06:53.017Z,99969.59
2022-12-08T15:09:39.265Z,99967.25
2022-12-08T15:12:19.662Z,99962.91
2022-12-08T15:15:17.430Z,99966.66
2022-12-08T15:17:57.884Z,99978.16
2022-12-08T15:20:46.843Z,99965.88
2022-12-08T15:23:29.757Z,99967.72
2022-12-08T15:25:59.654Z,99968.31
2022-12-08T15:28:32.556Z,99972.09
2022-12-08T15:30:59.600Z,99961.84
2022-12-08T15:33:26.957Z,99964.84
2022-12-08T15:35:55.946Z,99965.25
2022-12-08T15:38:33.612Z,99961.53
2022-12-08T15:41:00.473Z,99960.31
2022-12-08T15:43:30.940Z,99959.75
2022-12-08T15:46:00.230Z,99953.28
2022-12-08T15:48:30.945Z,99957.50
2022-12-08T15:50:59.391Z,99957.09
2022-12-08T15:53:26.390Z,99956.19
2022-12-08T15:56:25.837Z,99962.09
2022-12-08T15:58:53.667Z,99960.09
2022-12-08T16:01:22.715Z,99961.13
2022-12-08T16:09:40.077Z,99957.03
2022-12-08T16:13:19.942Z,99956.53
2022-12-08T16:18:15.771Z,99954.44
2022-12-08T16:21:07.459Z,99951.78
2022-12-08T16:23:45.926Z,99946.69
2022-12-08T16:29:09.845Z,99936.53
2022-12-08T16:31:36.663Z,99944.66
2022-12-08T16:34:05.664Z,99936.69
2022-12-08T16:36:33.758Z,99940.00
2022-12-08T16:39:02.113Z,99941.06
2022-12-08T16:41:47.492Z,99941.50
2022-12-08T16:44:14.263Z,99937.81
2022-12-08T16:46:41.426Z,99935.63
2022-12-08T16:49:09.744Z,99933.34
2022-12-08T16:51:37.786Z,99932.50
2022-12-08T16:54:04.590Z,99940.53
2022-12-08T16:56:33.476Z,99935.16
2022-12-08T16:59:01.826Z,99935.72
2022-12-08T17:01:28.748Z,99941.06
2022-12-08T17:04:29.133Z,99928.63
2022-12-08T17:06:42.337Z,99931.28
2022-12-08T17:09:08.977Z,99935.88
2022-12-08T17:11:42.290Z,99930.31
2022-12-08T17:14:09.722Z,99933.09
2022-12-08T17:16:36.412Z,99933.78
2022-12-08T17:19:03.182Z,99929.84
2022-12-08T17:21:29.921Z,99921.13
2022-12-08T17:23:56.583Z,99920.56
2022-12-08T17:26:23.138Z,99925.22
2022-12-08T17:29:05.288Z,99928.97
2022-12-08T17:31:33.107Z,99931.69
2022-12-08T17:34:04.885Z,99931.94
2022-12-08T17:36:31.997Z,99936.19
2022-12-08T17:39:00.308Z,99923.00
2022-12-08T17:41:27.969Z,99930.56
2022-12-08T17:43:54.781Z,99924.19
2022-12-08T17:46:22.446Z,99916.78
2022-12-08T17:48:49.222Z,99920.56
2022-12-08T17:51:16.162Z,99912.66
2022-12-08T17:53:42.940Z,99918.56
2022-12-08T17:56:18.381Z,99913.16
2022-12-08T17:58:48.680Z,99916.22
2022-12-08T18:01:19.514Z,99916.69
2022-12-08T18:03:46.126Z,99919.91
2022-12-08T18:06:13.123Z,99920.00
2022-12-08T18:08:40.034Z,99923.25
2022-12-08T18:11:12.364Z,99928.56
2022-12-08T18:13:39.150Z,99931.22
2022-12-08T18:16:05.905Z,99923.81
2022-12-08T18:18:32.574Z,99924.94
2022-12-08T18:20:59.152Z,99929.47
2022-12-08T18:23:25.843Z,99928.78
2022-12-08T18:25:52.720Z,99929.19
2022-12-08T18:28:19.405Z,99926.75
2022-12-08T18:30:46.228Z,99924.19
2022-12-08T18:33:12.864Z,99922.09
2022-12-08T18:35:40.174Z,99924.75
2022-12-08T18:38:08.052Z,99928.22
2022-12-08T18:40:34.803Z,99930.88
2022-12-08T18:43:01.356Z,99932.41
2022-12-08T18:45:28.056Z,99927.59
2022-12-08T18:47:54.726Z,99920.75
2022-12-08T18:50:21.354Z,99917.81
2022-12-08T18:52:48.395Z,99920.28
2022-12-08T18:55:15.195Z,99917.88
2022-12-08T18:57:43.333Z,99915.41
2022-12-08T19:00:18.156Z,99924.94
2022-12-08T19:02:45.037Z,99921.84
2022-12-08T19:05:13.419Z,99921.03
2022-12-08T19:07:40.102Z,99925.38
2022-12-08T19:10:07.500Z,99924.44
2022-12-08T19:12:35.227Z,99924.09
2022-12-08T19:15:02.072Z,99921.31
2022-12-08T19:17:29.706Z,99921.59
2022-12-08T19:19:56.342Z,99920.06
2022-12-08T19:22:22.880Z,99921.72
2022-12-08T19:24:49.497Z,99931.22
2022-12-08T19:27:16.132Z,99925.66
2022-12-08T19:29:42.780Z,99925.41
2022-12-08T19:32:09.451Z,99922.19
2022-12-08T19:34:36.156Z,99924.28
2022-12-08T19:37:02.760Z,99922.34
2022-12-08T19:39:47.769Z,99930.00
2022-12-08T19:42:39.365Z,99922.00
2022-12-08T19:45:14.381Z,99922.00
2022-12-08T19:47:42.349Z,99922.84
2022-12-08T19:50:35.252Z,99913.00
2022-12-08T19:53:09.326Z,99905.56
2022-12-08T19:55:36.578Z,99909.25
2022-12-08T19:58:04.940Z,99902.34
2022-12-08T20:00:33.339Z,99905.47
2022-12-08T20:03:01.941Z,99895.72
2022-12-08T20:05:31.086Z,99900.22
2022-12-08T20:07:58.068Z,99900.41
2022-12-08T20:10:32.093Z,99902.88
2022-12-08T20:13:17.748Z,99902.88
2022-12-08T20:15:45.428Z,99894.81
2022-12-08T20:18:16.924Z,99900.22
2022-12-08T20:20:45.622Z,99901.94
2022-12-08T20:23:13.709Z,99898.50
2022-12-08T20:25:42.938Z,99903.03
2022-12-08T20:28:10.078Z,99904.16
2022-12-08T20:30:42.159Z,99904.97
2022-12-08T20:33:12.762Z,99898.06
2022-12-08T20:35:39.583Z,99899.84
2022-12-08T20:38:06.377Z,99904.22
2022-12-08T20:40:33.169Z,99894.72
2022-12-08T20:43:00.769Z,99896.56
2022-12-08T20:45:53.323Z,99901.94
2022-12-08T20:48:20.732Z,99905.69
2022-12-08T20:50:51.674Z,99899.59
2022-12-08T20:53:18.441Z,99899.25
2022-12-08T20:55:45.427Z,99905.34
2022-12-08T20:58:13.464Z,99898.25
2022-12-08T21:00:41.403Z,99901.16
2022-12-08T21:03:08.672Z,99892.88
2022-12-08T21:05:36.813Z,99895.06
2022-12-08T21:08:03.801Z,99896.66
2022-12-08T21:10:30.572Z,99908.00
2022-12-08T21:12:57.369Z,99902.00
2022-12-08T21:15:24.121Z,99906.50
2022-12-08T21:17:52.173Z,99900.41
2022-12-08T21:20:19.228Z,99900.59
2022-12-08T21:22:45.843Z,99896.72
2022-12-08T21:25:12.904Z,99892.22
2022-12-08T21:27:39.993Z,99895.84
2022-12-08T21:30:08.727Z,99895.16
2022-12-08T21:32:39.103Z,99896.31
2022-12-08T21:35:06.821Z,99895.03
2022-12-08T21:37:33.790Z,99892.88
2022-12-08T21:40:00.461Z,99889.31
2022-12-08T21:42:45.594Z,99891.16
2022-12-08T21:45:16.932Z,99897.94
2022-12-08T21:47:44.325Z,99895.72
2022-12-08T21:50:12.653Z,99903.91
2022-12-08T21:52:44.073Z,99900.69
2022-12-08T21:55:13.037Z,99902.06
2022-12-08T21:57:40.720Z,99889.56
2022-12-08T22:00:09.501Z,99885.78
2022-12-08T22:02:36.806Z,99889.34
2022-12-08T22:05:03.595Z,99893.56
2022-12-08T22:07:30.370Z,99895.03
2022-12-08T22:09:57.213Z,99899.50
2022-12-08T22:12:23.927Z,99894.34
2022-12-08T22:14:51.047Z,99889.41
2022-12-08T22:17:18.747Z,99897.66
2022-12-08T22:19:46.054Z,99893.63
2022-12-08T22:22:12.912Z,99896.50
2022-12-08T22:24:39.793Z,99897.59
2022-12-08T22:27:06.676Z,99897.72
2022-12-08T22:29:33.499Z,99893.34
2022-12-08T22:32:00.291Z,99896.13
2022-12-08T22:34:27.353Z,99888.63
2022-12-08T22:36:53.992Z,99890.56
2022-12-08T22:39:20.605Z,99888.97
2022-12-08T22:41:47.208Z,99888.94
2022-12-08T22:44:16.318Z,99890.56
2022-12-08T22:46:43.172Z,99884.22
2022-12-08T22:49:10.121Z,99882.59
2022-12-08T22:51:40.062Z,99884.81
2022-12-08T22:54:06.638Z,99879.84
2022-12-08T22:56:33.246Z,99877.63
2022-12-08T22:59:00.515Z,99878.91
2022-12-08T23:01:32.780Z,99872.09
2022-12-08T23:04:00.909Z,99871.03
2022-12-08T23:06:28.862Z,99868.16
2022-12-08T23:08:56.290Z,99867.28
2022-12-08T23:11:25.883Z,99865.44
2022-12-08T23:13:52.667Z,99864.50
2022-12-08T23:16:19.625Z,99862.47
2022-12-08T23:18:46.939Z,99868.16
2022-12-08T23:21:17.219Z,99858.47
2022-12-08T23:23:44.520Z,99859.97
2022-12-08T23:26:24.753Z,99856.53
2022-12-08T23:28:52.881Z,99852.81
2022-12-08T23:31:20.295Z,99850.84
2022-12-08T23:33:47.154Z,99850.50
2022-12-08T23:36:15.228Z,99851.00
2022-12-08T23:38:42.339Z,99851.88
2022-12-08T23:41:11.388Z,99838.88
2022-12-08T23:43:43.280Z,99844.19
2022-12-08T23:46:09.999Z,99841.75
2022-12-08T23:48:36.986Z,99836.09
2022-12-08T23:51:03.760Z,99834.63
2022-12-08T23:53:31.971Z,99831.63
2022-12-08T23:56:00.941Z,99823.75
2022-12-08T23:58:27.953Z,99820.81
